createdAt,value
2023-01-19T00:01:49.034Z,25.25
2023-01-19T00:04:15.808Z,20.88
2023-01-19T00:06:42.329Z,14.13
2023-01-19T00:09:08.828Z,18.77
2023-01-19T00:11:35.493Z,19.55
2023-01-19T00:14:02.422Z,16.95
2023-01-19T00:16:28.919Z,19.13
2023-01-19T00:18:55.774Z,22.52
2023-01-19T00:21:22.323Z,16.85
2023-01-19T00:23:51.029Z,19.45
2023-01-19T00:26:17.798Z,20.15
2023-01-19T00:28:44.668Z,17.08
2023-01-19T00:31:11.436Z,18.88
2023-01-19T00:33:38.068Z,17.75
2023-01-19T00:36:04.791Z,26.23
2023-01-19T00:38:31.457Z,13.57
2023-01-19T00:40:58.008Z,20.80
2023-01-19T00:43:24.641Z,17.70
2023-01-19T00:45:51.609Z,14.82
2023-01-19T00:48:18.127Z,20.52
2023-01-19T00:50:44.613Z,27.27
2023-01-19T00:53:11.192Z,18.13
2023-01-19T00:55:37.928Z,23.70
2023-01-19T00:58:04.750Z,26.25
2023-01-19T01:00:31.289Z,21.13
2023-01-19T01:02:58.215Z,21.70
2023-01-19T01:05:25.271Z,25.60
2023-01-19T01:07:51.901Z,24.05
2023-01-19T01:10:20.543Z,19.85
2023-01-19T01:12:56.169Z,22.92
2023-01-19T01:15:34.673Z,18.52
2023-01-19T01:18:01.203Z,19.92
2023-01-19T01:20:28.731Z,22.65
2023-01-19T01:22:55.887Z,20.58
2023-01-19T01:25:24.302Z,23.27
2023-01-19T01:27:51.410Z,19.80
2023-01-19T01:30:18.376Z,26.17
2023-01-19T01:32:45.015Z,14.82
2023-01-19T01:35:12.409Z,19.30
2023-01-19T01:37:39.275Z,21.80
2023-01-19T01:40:06.897Z,21.27
2023-01-19T01:42:33.962Z,23.60
2023-01-19T01:45:01.683Z,20.20
2023-01-19T01:47:34.206Z,17.90
2023-01-19T01:50:15.149Z,20.95
2023-01-19T01:52:45.275Z,17.63
2023-01-19T01:55:32.564Z,13.38
2023-01-19T01:58:02.474Z,17.42
2023-01-19T02:00:49.514Z,17.52
2023-01-19T02:03:16.090Z,14.50
2023-01-19T02:05:43.132Z,19.15
2023-01-19T02:08:43.732Z,13.63
2023-01-19T02:11:28.957Z,23.60
2023-01-19T02:13:55.571Z,20.55
2023-01-19T02:16:22.259Z,15.50
2023-01-19T02:18:48.817Z,24.77
2023-01-19T02:21:20.313Z,14.07
2023-01-19T02:23:52.035Z,17.05
2023-01-19T02:26:23.121Z,17.10
2023-01-19T02:28:51.851Z,16.95
2023-01-19T02:31:18.612Z,17.73
2023-01-19T02:33:45.683Z,14.60
2023-01-19T02:36:14.068Z,14.07
2023-01-19T02:38:41.594Z,27.70
2023-01-19T02:41:11.365Z,18.92
2023-01-19T02:43:38.250Z,18.33
2023-01-19T02:46:05.000Z,21.75
2023-01-19T02:48:31.638Z,13.55
2023-01-19T02:51:04.177Z,25.65
2023-01-19T02:53:49.776Z,20.10
2023-01-19T02:56:24.724Z,19.75
2023-01-19T02:58:54.277Z,18.08
2023-01-19T03:01:29.152Z,19.67
2023-01-19T03:04:02.243Z,15.85
2023-01-19T03:06:44.609Z,17.45
2023-01-19T03:09:26.527Z,19.50
2023-01-19T03:11:57.554Z,13.48
2023-01-19T03:14:26.681Z,19.10
2023-01-19T03:17:00.853Z,15.80
2023-01-19T03:19:31.817Z,23.13
2023-01-19T03:21:59.963Z,17.80
2023-01-19T03:24:29.194Z,19.98
2023-01-19T03:26:58.851Z,12.90
2023-01-19T03:29:28.141Z,18.45
2023-01-19T03:31:57.027Z,22.48
2023-01-19T03:34:24.022Z,18.50
2023-01-19T03:36:52.659Z,26.23
2023-01-19T03:39:22.622Z,17.30
2023-01-19T03:41:52.177Z,18.38
2023-01-19T03:44:18.637Z,19.55
2023-01-19T03:46:46.140Z,19.50
2023-01-19T03:49:12.664Z,11.52
2023-01-19T03:51:39.908Z,23.50
2023-01-19T03:54:06.944Z,22.27
2023-01-19T03:56:33.592Z,21.10
2023-01-19T03:59:00.496Z,15.07
2023-01-19T04:01:27.630Z,15.23
2023-01-19T04:03:54.511Z,16.47
2023-01-19T04:06:21.431Z,16.00
2023-01-19T04:08:49.236Z,17.50
2023-01-19T04:11:16.050Z,16.20
2023-01-19T04:13:42.688Z,20.20
2023-01-19T04:16:09.954Z,20.57
2023-01-19T04:18:36.607Z,24.17
2023-01-19T04:21:04.450Z,18.27
2023-01-19T04:23:31.182Z,16.67
2023-01-19T04:25:58.834Z,16.97
2023-01-19T04:28:25.934Z,21.05
2023-01-19T04:30:52.489Z,16.57
2023-01-19T04:33:19.403Z,19.80
2023-01-19T04:35:46.644Z,23.73
2023-01-19T04:38:13.315Z,28.80
2023-01-19T04:40:40.627Z,26.60
2023-01-19T04:43:07.699Z,21.03
2023-01-19T04:45:34.409Z,26.33
2023-01-19T04:48:00.900Z,26.30
2023-01-19T04:50:27.459Z,20.97
2023-01-19T04:52:53.951Z,17.43
2023-01-19T04:55:20.508Z,37.07
2023-01-19T04:57:47.250Z,26.70
2023-01-19T05:00:14.213Z,17.57
2023-01-19T05:02:43.955Z,23.60
2023-01-19T05:05:11.783Z,32.27
2023-01-19T05:07:38.672Z,30.03
2023-01-19T05:10:06.288Z,29.27
2023-01-19T05:12:33.175Z,19.57
2023-01-19T05:14:59.693Z,25.60
2023-01-19T05:17:26.379Z,35.87
2023-01-19T05:19:52.846Z,26.73
2023-01-19T05:22:19.344Z,24.87
2023-01-19T05:24:45.878Z,28.23
2023-01-19T05:27:12.416Z,26.35
2023-01-19T05:29:39.077Z,37.17
2023-01-19T05:32:06.048Z,44.20
2023-01-19T05:34:32.776Z,43.88
2023-01-19T05:36:59.541Z,33.80
2023-01-19T05:39:26.884Z,40.42
2023-01-19T05:41:53.450Z,42.03
2023-01-19T05:44:20.109Z,40.47
2023-01-19T05:46:46.867Z,44.00
2023-01-19T05:49:13.661Z,37.33
2023-01-19T05:51:45.203Z,30.20
2023-01-19T05:54:13.094Z,50.25
2023-01-19T05:56:39.599Z,63.83
2023-01-19T05:59:06.430Z,49.30
2023-01-19T06:01:38.848Z,64.05
2023-01-19T06:04:06.490Z,38.22
2023-01-19T06:06:33.112Z,56.75
2023-01-19T06:08:59.618Z,79.80
2023-01-19T06:11:26.273Z,48.20
2023-01-19T06:13:52.876Z,54.25
2023-01-19T06:16:19.747Z,46.40
2023-01-19T06:18:46.305Z,39.17
2023-01-19T06:21:14.407Z,63.13
2023-01-19T06:23:40.990Z,63.15
2023-01-19T06:26:07.594Z,53.30
2023-01-19T06:28:34.501Z,66.80
2023-01-19T06:31:01.427Z,69.20
2023-01-19T06:33:28.691Z,56.28
2023-01-19T06:35:55.783Z,83.90
2023-01-19T06:38:22.387Z,64.45
2023-01-19T06:40:58.738Z,64.72
2023-01-19T06:43:26.242Z,55.28
2023-01-19T06:45:53.156Z,56.50
2023-01-19T06:48:19.931Z,75.00
2023-01-19T06:50:47.098Z,59.85
2023-01-19T06:53:14.198Z,62.40
2023-01-19T06:55:40.726Z,66.90
2023-01-19T06:58:07.253Z,54.80
2023-01-19T07:00:33.854Z,65.65
2023-01-19T07:03:00.818Z,66.22
2023-01-19T07:05:28.189Z,66.78
2023-01-19T07:07:55.350Z,65.32
2023-01-19T07:10:22.678Z,61.33
2023-01-19T07:12:49.322Z,60.00
2023-01-19T07:15:16.926Z,63.90
2023-01-19T07:17:43.733Z,67.13
2023-01-19T07:20:13.053Z,61.78
2023-01-19T07:22:40.085Z,61.38
2023-01-19T07:25:07.257Z,67.80
2023-01-19T07:27:33.759Z,50.97
2023-01-19T07:30:01.583Z,52.78
2023-01-19T07:32:28.951Z,53.38
2023-01-19T07:34:55.556Z,47.22
2023-01-19T07:37:22.133Z,55.38
2023-01-19T07:39:48.631Z,54.80
2023-01-19T07:42:15.314Z,47.10
2023-01-19T07:44:42.138Z,57.80
2023-01-19T07:47:11.172Z,65.22
2023-01-19T07:49:37.937Z,54.90
2023-01-19T07:52:04.701Z,52.60
2023-01-19T07:54:31.193Z,62.83
2023-01-19T07:56:57.664Z,58.40
2023-01-19T07:59:24.251Z,69.78
2023-01-19T08:01:51.084Z,58.72
2023-01-19T08:04:19.133Z,65.72
2023-01-19T08:06:46.292Z,78.45
2023-01-19T08:09:12.895Z,75.38
2023-01-19T08:11:39.489Z,94.00
2023-01-19T08:14:08.050Z,81.43
2023-01-19T08:16:35.041Z,82.90
2023-01-19T08:19:01.878Z,71.40
2023-01-19T08:21:28.560Z,66.80
2023-01-19T08:23:56.252Z,85.35
2023-01-19T08:26:30.340Z,59.80
2023-01-19T08:28:58.003Z,75.07
2023-01-19T08:31:25.136Z,81.25
2023-01-19T08:33:52.350Z,61.72
2023-01-19T08:36:19.467Z,64.57
2023-01-19T08:38:46.372Z,67.60
2023-01-19T08:41:13.452Z,68.70
2023-01-19T08:43:40.087Z,63.22
2023-01-19T08:46:06.832Z,62.63
2023-01-19T08:48:33.716Z,84.80
2023-01-19T08:51:00.584Z,63.83
2023-01-19T08:53:27.265Z,53.65
2023-01-19T08:55:55.159Z,65.65
2023-01-19T08:58:21.751Z,74.22
2023-01-19T09:00:48.882Z,72.00
2023-01-19T09:03:15.464Z,71.45
2023-01-19T09:05:42.264Z,78.50
2023-01-19T09:08:10.944Z,78.00
2023-01-19T09:10:38.304Z,69.97
2023-01-19T09:13:05.497Z,72.75
2023-01-19T09:15:34.001Z,69.45
2023-01-19T09:18:01.148Z,74.63
2023-01-19T09:20:30.858Z,85.15
2023-01-19T09:22:58.347Z,58.17
2023-01-19T09:25:25.479Z,77.30
2023-01-19T09:27:52.439Z,68.05
2023-01-19T09:30:19.634Z,53.88
2023-01-19T09:32:46.291Z,60.97
2023-01-19T09:35:13.161Z,60.92
2023-01-19T09:37:39.746Z,58.13
2023-01-19T09:40:06.590Z,61.38
2023-01-19T09:42:43.883Z,58.33
2023-01-19T09:45:20.515Z,37.63
2023-01-19T09:47:48.566Z,59.30
2023-01-19T09:50:24.763Z,49.87
2023-01-19T09:52:56.283Z,54.00
2023-01-19T09:55:25.465Z,53.65
2023-01-19T09:57:52.315Z,62.78
2023-01-19T10:00:19.252Z,76.00
2023-01-19T10:02:53.080Z,66.75
2023-01-19T10:05:25.913Z,51.05
2023-01-19T10:07:55.629Z,47.37
2023-01-19T10:10:24.387Z,62.43
2023-01-19T10:13:10.219Z,50.35
2023-01-19T10:15:55.506Z,53.42
2023-01-19T10:18:34.980Z,67.27
2023-01-19T10:21:13.094Z,55.63
2023-01-19T10:23:48.432Z,49.73
2023-01-19T10:26:21.068Z,52.33
2023-01-19T10:28:49.302Z,46.60
2023-01-19T10:31:18.517Z,56.10
2023-01-19T10:33:45.284Z,43.27
2023-01-19T10:36:38.342Z,49.60
2023-01-19T10:39:05.829Z,42.93
2023-01-19T10:41:43.191Z,38.07
2023-01-19T10:44:10.906Z,53.20
2023-01-19T10:46:40.415Z,43.43
2023-01-19T10:49:07.431Z,52.73
2023-01-19T10:51:34.197Z,51.27
2023-01-19T10:54:01.980Z,34.70
2023-01-19T10:56:31.356Z,35.43
2023-01-19T10:59:01.971Z,33.80
2023-01-19T11:01:30.550Z,52.23
2023-01-19T11:04:05.441Z,45.00
2023-01-19T11:06:33.926Z,45.53
2023-01-19T11:09:11.190Z,62.10
2023-01-19T11:11:48.876Z,52.03
2023-01-19T11:14:18.480Z,45.63
2023-01-19T11:16:46.906Z,41.70
2023-01-19T11:19:21.539Z,40.60
2023-01-19T11:21:48.100Z,47.83
2023-01-19T11:24:16.322Z,54.73
2023-01-19T11:26:45.109Z,58.10
2023-01-19T11:29:16.014Z,52.83
2023-01-19T11:31:42.590Z,52.10
2023-01-19T11:34:29.446Z,50.73
2023-01-19T11:36:58.113Z,48.90
2023-01-19T11:39:26.455Z,42.23
2023-01-19T11:41:54.868Z,43.80
2023-01-19T11:44:23.620Z,55.93
2023-01-19T11:46:53.340Z,52.10
2023-01-19T11:49:29.798Z,56.77
2023-01-19T11:52:04.670Z,47.20
2023-01-19T11:54:41.719Z,43.07
2023-01-19T11:57:13.205Z,49.17
2023-01-19T11:59:39.791Z,54.50
2023-01-19T12:02:14.401Z,37.20
2023-01-19T12:04:42.564Z,39.90
2023-01-19T12:07:10.619Z,46.93
2023-01-19T12:09:46.182Z,38.70
2023-01-19T12:12:21.846Z,60.17
2023-01-19T12:15:05.237Z,38.63
2023-01-19T12:17:45.388Z,39.93
2023-01-19T12:20:26.633Z,34.60
2023-01-19T12:23:11.571Z,45.73
2023-01-19T12:25:45.262Z,45.77
2023-01-19T12:28:13.938Z,40.17
2023-01-19T12:30:41.149Z,39.13
2023-01-19T12:33:40.520Z,50.57
2023-01-19T12:36:16.303Z,55.67
2023-01-19T12:38:45.328Z,38.47
2023-01-19T12:41:15.966Z,42.07
2023-01-19T12:43:42.623Z,55.13
2023-01-19T12:46:38.694Z,44.83
2023-01-19T12:49:14.331Z,40.50
2023-01-19T12:51:41.240Z,47.23
2023-01-19T12:54:08.206Z,44.70
2023-01-19T12:56:36.431Z,38.20
2023-01-19T12:59:03.747Z,42.10
2023-01-19T13:01:31.239Z,36.30
2023-01-19T13:03:59.777Z,41.73
2023-01-19T13:06:45.360Z,38.63
2023-01-19T13:09:32.094Z,47.33
2023-01-19T13:12:14.058Z,38.80
2023-01-19T13:14:44.002Z,36.27
2023-01-19T13:17:22.542Z,48.20
2023-01-19T13:19:52.149Z,36.23
2023-01-19T13:22:37.859Z,44.80
2023-01-19T13:25:12.017Z,55.50
2023-01-19T13:27:39.040Z,64.07
2023-01-19T13:30:15.452Z,35.17
2023-01-19T13:32:42.251Z,40.70
2023-01-19T13:35:14.464Z,46.20
2023-01-19T13:37:43.387Z,47.03
2023-01-19T13:40:36.295Z,59.92
2023-01-19T13:43:03.195Z,53.40
2023-01-19T13:45:34.233Z,54.80
2023-01-19T13:48:02.708Z,44.50
2023-01-19T13:50:31.017Z,51.13
2023-01-19T13:52:58.914Z,60.30
2023-01-19T13:55:30.004Z,40.75
2023-01-19T13:57:57.115Z,56.50
2023-01-19T14:00:25.023Z,40.92
2023-01-19T14:02:58.780Z,43.40
2023-01-19T14:05:33.008Z,43.30
2023-01-19T14:08:03.905Z,38.90
2023-01-19T14:10:31.292Z,38.17
2023-01-19T14:13:27.221Z,30.90
2023-01-19T14:15:56.139Z,39.03
2023-01-19T14:18:22.774Z,32.40
2023-01-19T14:20:52.465Z,33.90
2023-01-19T14:23:38.117Z,38.17
2023-01-19T14:26:04.839Z,39.90
2023-01-19T14:28:44.670Z,30.52
2023-01-19T14:31:19.182Z,33.57
2023-01-19T14:33:46.996Z,43.90
2023-01-19T14:36:14.131Z,43.45
2023-01-19T14:38:45.791Z,47.92
2023-01-19T14:41:13.483Z,38.23
2023-01-19T14:43:44.317Z,31.07
2023-01-19T14:46:18.335Z,39.85
2023-01-19T14:48:49.121Z,37.67
2023-01-19T14:51:21.978Z,37.35
2023-01-19T14:53:51.294Z,33.80
2023-01-19T14:56:31.306Z,30.23
2023-01-19T14:58:58.849Z,27.17
2023-01-19T15:01:28.574Z,30.15
2023-01-19T15:03:58.969Z,36.30
2023-01-19T15:06:26.205Z,33.97
2023-01-19T15:08:53.693Z,37.83
2023-01-19T15:11:33.842Z,25.53
2023-01-19T15:14:00.644Z,35.53
2023-01-19T15:16:28.851Z,23.17
2023-01-19T15:18:55.837Z,32.47
2023-01-19T15:21:29.247Z,31.13
2023-01-19T15:23:55.973Z,37.93
2023-01-19T15:26:23.856Z,33.80
2023-01-19T15:28:50.754Z,35.60
2023-01-19T15:31:24.935Z,36.20
2023-01-19T15:33:51.721Z,31.90
2023-01-19T15:36:19.904Z,30.33
2023-01-19T15:38:46.860Z,45.77
2023-01-19T15:41:24.758Z,26.43
2023-01-19T15:43:51.658Z,26.70
2023-01-19T15:46:22.700Z,22.13
2023-01-19T15:48:50.440Z,20.60
2023-01-19T15:51:18.632Z,33.92
2023-01-19T15:53:45.530Z,29.83
2023-01-19T15:56:15.685Z,16.07
2023-01-19T15:58:42.863Z,20.33
2023-01-19T16:01:20.105Z,29.73
2023-01-19T16:03:47.041Z,17.48
2023-01-19T16:06:16.194Z,16.17
2023-01-19T16:08:42.979Z,24.20
2023-01-19T16:11:11.064Z,24.13
2023-01-19T16:13:38.048Z,24.92
2023-01-19T16:16:05.617Z,24.13
2023-01-19T16:18:32.849Z,21.67
2023-01-19T16:20:59.630Z,23.13
2023-01-19T16:23:26.306Z,29.42
2023-01-19T16:25:57.566Z,19.88
2023-01-19T16:28:24.531Z,17.75
2023-01-19T16:30:52.267Z,22.02
2023-01-19T16:33:20.367Z,24.38
2023-01-19T16:35:47.108Z,20.55
2023-01-19T16:38:14.038Z,35.72
2023-01-19T16:40:40.617Z,19.85
2023-01-19T16:43:07.311Z,22.02
2023-01-19T16:45:33.975Z,16.30
2023-01-19T16:48:00.809Z,16.15
2023-01-19T16:50:27.440Z,16.10
2023-01-19T16:52:57.632Z,20.52
2023-01-19T16:55:24.485Z,26.45
2023-01-19T16:57:52.631Z,23.08
2023-01-19T17:00:19.717Z,26.33
2023-01-19T17:02:46.662Z,29.48
2023-01-19T17:05:14.577Z,23.23
2023-01-19T17:07:41.299Z,23.77
2023-01-19T17:10:08.373Z,21.87
2023-01-19T17:12:35.270Z,21.35
2023-01-19T17:15:01.866Z,23.45
2023-01-19T17:17:28.563Z,26.95
2023-01-19T17:19:55.201Z,29.08
2023-01-19T17:22:21.839Z,31.02
2023-01-19T17:24:49.234Z,24.38
2023-01-19T17:27:17.244Z,23.92
2023-01-19T17:29:43.861Z,27.83
2023-01-19T17:32:10.483Z,23.88
2023-01-19T17:34:37.134Z,23.60
2023-01-19T17:37:03.824Z,23.92
2023-01-19T17:39:30.511Z,27.50
2023-01-19T17:41:57.476Z,22.73
2023-01-19T17:44:24.106Z,32.58
2023-01-19T17:46:51.027Z,25.48
2023-01-19T17:49:17.784Z,55.38
2023-01-19T17:51:44.520Z,49.88
2023-01-19T17:54:11.477Z,96.82
2023-01-19T17:56:40.558Z,27.38
2023-01-19T17:59:08.281Z,28.90
2023-01-19T18:01:38.331Z,27.75
2023-01-19T18:04:05.613Z,30.73
2023-01-19T18:06:32.378Z,128.90
2023-01-19T18:08:59.487Z,81.18
2023-01-19T18:11:26.630Z,91.70
2023-01-19T18:13:53.513Z,39.00
2023-01-19T18:16:24.756Z,29.60
2023-01-19T18:18:53.625Z,30.05
2023-01-19T18:21:21.924Z,30.98
2023-01-19T18:23:49.288Z,30.55
2023-01-19T18:26:17.401Z,26.40
2023-01-19T18:28:43.997Z,30.40
2023-01-19T18:31:11.627Z,30.58
2023-01-19T18:33:39.040Z,25.77
2023-01-19T18:36:06.408Z,22.65
2023-01-19T18:38:33.335Z,35.08
2023-01-19T18:41:03.968Z,23.10
2023-01-19T18:43:30.669Z,30.15
2023-01-19T18:45:57.518Z,19.67
2023-01-19T18:48:24.185Z,24.92
2023-01-19T18:50:50.972Z,24.02
2023-01-19T18:53:17.638Z,22.45
2023-01-19T18:56:03.369Z,26.17
2023-01-19T18:58:31.456Z,35.63
2023-01-19T19:01:01.170Z,26.95
2023-01-19T19:03:28.052Z,25.92
2023-01-19T19:05:54.896Z,40.13
2023-01-19T19:08:21.583Z,29.38
2023-01-19T19:10:48.131Z,34.72
2023-01-19T19:13:15.727Z,28.02
2023-01-19T19:15:44.520Z,38.08
2023-01-19T19:18:13.838Z,33.88
2023-01-19T19:20:42.030Z,31.30
2023-01-19T19:23:09.173Z,31.67
2023-01-19T19:25:35.713Z,28.38
2023-01-19T19:28:02.312Z,32.88
2023-01-19T19:30:29.275Z,35.47
2023-01-19T19:32:56.671Z,31.13
2023-01-19T19:35:23.651Z,42.20
2023-01-19T19:37:51.404Z,39.97
2023-01-19T19:40:18.215Z,38.78
2023-01-19T19:42:44.794Z,35.55
2023-01-19T19:45:11.713Z,42.88
2023-01-19T19:47:38.382Z,51.47
2023-01-19T19:50:05.096Z,42.92
2023-01-19T19:52:32.069Z,39.05
2023-01-19T19:54:58.930Z,35.03
2023-01-19T19:57:25.459Z,46.97
2023-01-19T19:59:52.290Z,37.58
2023-01-19T20:02:18.984Z,48.17
2023-01-19T20:04:45.827Z,57.20
2023-01-19T20:07:12.610Z,46.60
2023-01-19T20:09:39.459Z,37.97
2023-01-19T20:12:06.400Z,55.60
2023-01-19T20:14:32.933Z,53.63
2023-01-19T20:17:00.593Z,44.80
2023-01-19T20:19:27.133Z,42.13
2023-01-19T20:21:53.858Z,68.95
2023-01-19T20:24:21.041Z,53.10
2023-01-19T20:26:50.282Z,50.72
2023-01-19T20:29:17.338Z,52.38
2023-01-19T20:31:45.868Z,55.45
2023-01-19T20:34:13.663Z,56.55
2023-01-19T20:36:41.201Z,62.40
2023-01-19T20:39:11.460Z,56.20
2023-01-19T20:41:43.500Z,60.47
2023-01-19T20:44:15.126Z,52.53
2023-01-19T20:46:42.239Z,49.03
2023-01-19T20:49:09.054Z,65.30
2023-01-19T20:51:37.340Z,60.70
2023-01-19T20:54:04.256Z,50.13
2023-01-19T20:56:31.256Z,57.45
2023-01-19T20:58:58.870Z,44.83
2023-01-19T21:01:25.688Z,48.28
2023-01-19T21:03:52.491Z,52.45
2023-01-19T21:06:19.707Z,53.05
2023-01-19T21:08:46.489Z,48.67
2023-01-19T21:11:13.284Z,50.15
2023-01-19T21:13:39.806Z,51.42
2023-01-19T21:16:06.902Z,43.40
2023-01-19T21:18:33.457Z,42.65
2023-01-19T21:21:00.102Z,53.58
2023-01-19T21:23:27.334Z,67.68
2023-01-19T21:25:55.185Z,46.88
2023-01-19T21:28:22.896Z,67.38
2023-01-19T21:30:49.852Z,57.40
2023-01-19T21:33:16.939Z,56.35
2023-01-19T21:35:50.376Z,50.65
2023-01-19T21:38:17.034Z,60.75
2023-01-19T21:40:43.522Z,50.05
2023-01-19T21:43:11.763Z,60.05
2023-01-19T21:45:38.325Z,64.75
2023-01-19T21:48:04.847Z,59.28
2023-01-19T21:50:31.573Z,59.28
2023-01-19T21:52:58.125Z,57.10
2023-01-19T21:55:24.647Z,57.90
2023-01-19T21:57:54.232Z,49.08
2023-01-19T22:00:21.035Z,59.83
2023-01-19T22:03:02.743Z,65.63
2023-01-19T22:05:30.155Z,52.47
2023-01-19T22:07:56.714Z,52.15
2023-01-19T22:10:23.193Z,55.83
2023-01-19T22:12:49.677Z,69.50
2023-01-19T22:15:16.509Z,56.75
2023-01-19T22:17:43.029Z,70.15
2023-01-19T22:20:10.031Z,69.65
2023-01-19T22:22:36.631Z,56.75
2023-01-19T22:25:05.266Z,77.63
2023-01-19T22:27:33.356Z,77.18
2023-01-19T22:30:00.113Z,67.50
2023-01-19T22:32:26.697Z,72.25
2023-01-19T22:34:53.165Z,63.05
2023-01-19T22:37:19.782Z,72.68
2023-01-19T22:39:46.300Z,67.55
2023-01-19T22:42:12.741Z,62.50
2023-01-19T22:44:39.291Z,64.82
2023-01-19T22:47:05.836Z,67.18
2023-01-19T22:49:32.364Z,60.70
2023-01-19T22:51:59.104Z,68.35
2023-01-19T22:54:25.712Z,71.65
2023-01-19T22:56:52.210Z,73.80
2023-01-19T22:59:18.969Z,69.00
2023-01-19T23:01:45.834Z,65.75
2023-01-19T23:04:13.532Z,71.80
2023-01-19T23:06:40.067Z,64.72
2023-01-19T23:09:08.159Z,62.25
2023-01-19T23:11:36.531Z,63.20
2023-01-19T23:14:04.086Z,57.35
2023-01-19T23:16:30.637Z,73.80
2023-01-19T23:18:58.030Z,71.57
2023-01-19T23:21:26.169Z,66.47
2023-01-19T23:23:53.770Z,61.65
2023-01-19T23:26:20.334Z,58.40
2023-01-19T23:28:46.907Z,60.28
2023-01-19T23:31:14.885Z,58.53
2023-01-19T23:33:41.616Z,52.40
2023-01-19T23:36:08.520Z,68.38
2023-01-19T23:38:51.472Z,67.15
2023-01-19T23:41:18.641Z,64.28
2023-01-19T23:43:45.559Z,55.88
2023-01-19T23:46:12.662Z,51.05
2023-01-19T23:48:39.445Z,57.85
2023-01-19T23:51:07.234Z,62.83
2023-01-19T23:53:33.824Z,51.72
2023-01-19T23:56:08.145Z,52.08
2023-01-19T23:58:34.635Z,50.70
